sensor_id;sensor_type;location;lat;lon;timestamp;P1;durP1;ratioP1;P2;durP2;ratioP2
23866;SDS011;12114;53.404;-1.502;2023-12-14T00:00:37;11.25;;;4.63;;
23866;SDS011;12114;53.404;-1.502;2023-12-14T00:03:21;11.52;;;3.70;;
23866;SDS011;12114;53.404;-1.502;2023-12-14T00:06:05;11.18;;;3.67;;
23866;SDS011;12114;53.404;-1.502;2023-12-14T00:08:50;13.15;;;3.58;;
23866;SDS011;12114;53.404;-1.502;2023-12-14T00:11:38;8.07;;;3.20;;
23866;SDS011;12114;53.404;-1.502;2023-12-14T00:14:23;7.03;;;3.05;;
23866;SDS011;12114;53.404;-1.502;2023-12-14T00:17:07;7.75;;;2.58;;
23866;SDS011;12114;53.404;-1.502;2023-12-14T00:19:51;7.75;;;2.80;;
23866;SDS011;12114;53.404;-1.502;2023-12-14T00:22:35;6.43;;;2.60;;
23866;SDS011;12114;53.404;-1.502;2023-12-14T00:25:19;9.20;;;3.03;;
23866;SDS011;12114;53.404;-1.502;2023-12-14T00:28:03;11.50;;;3.15;;
23866;SDS011;12114;53.404;-1.502;2023-12-14T00:30:47;11.95;;;2.90;;
23866;SDS011;12114;53.404;-1.502;2023-12-14T00:33:32;9.90;;;3.10;;
23866;SDS011;12114;53.404;-1.502;2023-12-14T00:36:19;5.43;;;2.10;;
23866;SDS011;12114;53.404;-1.502;2023-12-14T00:39:04;7.80;;;2.40;;
23866;SDS011;12114;53.404;-1.502;2023-12-14T00:41:47;4.35;;;2.00;;
23866;SDS011;12114;53.404;-1.502;2023-12-14T00:44:31;7.45;;;2.03;;
23866;SDS011;12114;53.404;-1.502;2023-12-14T00:47:15;11.77;;;2.50;;
23866;SDS011;12114;53.404;-1.502;2023-12-14T00:49:59;24.77;;;3.55;;
23866;SDS011;12114;53.404;-1.502;2023-12-14T00:52:44;8.98;;;1.85;;
23866;SDS011;12114;53.404;-1.502;2023-12-14T00:55:29;5.95;;;1.90;;
23866;SDS011;12114;53.404;-1.502;2023-12-14T00:58:12;7.50;;;2.50;;
23866;SDS011;12114;53.404;-1.502;2023-12-14T01:00:56;7.10;;;2.25;;
23866;SDS011;12114;53.404;-1.502;2023-12-14T01:03:40;7.78;;;2.35;;
23866;SDS011;12114;53.404;-1.502;2023-12-14T01:06:24;5.30;;;2.08;;
23866;SDS011;12114;53.404;-1.502;2023-12-14T01:09:08;6.30;;;2.40;;
23866;SDS011;12114;53.404;-1.502;2023-12-14T01:11:52;4.93;;;2.17;;
23866;SDS011;12114;53.404;-1.502;2023-12-14T01:14:36;9.90;;;2.63;;
23866;SDS011;12114;53.404;-1.502;2023-12-14T01:17:20;6.53;;;2.38;;
23866;SDS011;12114;53.404;-1.502;2023-12-14T01:20:05;10.30;;;2.30;;
23866;SDS011;12114;53.404;-1.502;2023-12-14T01:22:50;9.48;;;2.38;;
23866;SDS011;12114;53.404;-1.502;2023-12-14T01:25:35;5.22;;;1.90;;
23866;SDS011;12114;53.404;-1.502;2023-12-14T01:28:20;8.75;;;1.88;;
23866;SDS011;12114;53.404;-1.502;2023-12-14T01:31:04;4.55;;;2.00;;
23866;SDS011;12114;53.404;-1.502;2023-12-14T01:33:48;6.38;;;1.73;;
23866;SDS011;12114;53.404;-1.502;2023-12-14T01:36:33;5.35;;;1.77;;
23866;SDS011;12114;53.404;-1.502;2023-12-14T01:39:17;6.28;;;1.73;;
23866;SDS011;12114;53.404;-1.502;2023-12-14T01:42:01;10.82;;;3.97;;
23866;SDS011;12114;53.404;-1.502;2023-12-14T01:44:45;12.10;;;4.13;;
23866;SDS011;12114;53.404;-1.502;2023-12-14T01:47:29;9.45;;;3.83;;
23866;SDS011;12114;53.404;-1.502;2023-12-14T01:50:13;233.55;;;19.15;;
23866;SDS011;12114;53.404;-1.502;2023-12-14T01:52:58;7.22;;;3.67;;
23866;SDS011;12114;53.404;-1.502;2023-12-14T01:55:42;9.10;;;3.05;;
23866;SDS011;12114;53.404;-1.502;2023-12-14T01:58:26;4.35;;;2.78;;
23866;SDS011;12114;53.404;-1.502;2023-12-14T02:04:00;7.53;;;2.70;;
23866;SDS011;12114;53.404;-1.502;2023-12-14T02:06:44;5.80;;;2.75;;
23866;SDS011;12114;53.404;-1.502;2023-12-14T02:09:28;7.10;;;3.70;;
23866;SDS011;12114;53.404;-1.502;2023-12-14T02:12:12;10.07;;;3.55;;
23866;SDS011;12114;53.404;-1.502;2023-12-14T02:14:56;10.75;;;3.40;;
23866;SDS011;12114;53.404;-1.502;2023-12-14T02:17:40;8.32;;;3.35;;
23866;SDS011;12114;53.404;-1.502;2023-12-14T02:20:24;7.93;;;3.58;;
23866;SDS011;12114;53.404;-1.502;2023-12-14T02:23:08;11.75;;;4.13;;
23866;SDS011;12114;53.404;-1.502;2023-12-14T02:25:52;6.28;;;3.15;;
23866;SDS011;12114;53.404;-1.502;2023-12-14T02:28:36;6.82;;;3.05;;
23866;SDS011;12114;53.404;-1.502;2023-12-14T02:31:20;32.05;;;6.05;;
23866;SDS011;12114;53.404;-1.502;2023-12-14T02:34:04;10.10;;;3.38;;
23866;SDS011;12114;53.404;-1.502;2023-12-14T02:36:48;8.40;;;3.17;;
23866;SDS011;12114;53.404;-1.502;2023-12-14T02:39:32;10.07;;;3.22;;
23866;SDS011;12114;53.404;-1.502;2023-12-14T02:42:16;9.05;;;2.95;;
23866;SDS011;12114;53.404;-1.502;2023-12-14T02:45:01;6.50;;;2.42;;
23866;SDS011;12114;53.404;-1.502;2023-12-14T02:47:45;6.40;;;2.43;;
23866;SDS011;12114;53.404;-1.502;2023-12-14T02:50:31;7.78;;;2.15;;
23866;SDS011;12114;53.404;-1.502;2023-12-14T02:53:15;5.38;;;2.05;;
23866;SDS011;12114;53.404;-1.502;2023-12-14T02:56:02;8.32;;;2.95;;
23866;SDS011;12114;53.404;-1.502;2023-12-14T02:58:47;11.45;;;2.45;;
23866;SDS011;12114;53.404;-1.502;2023-12-14T03:01:35;5.03;;;1.88;;
23866;SDS011;12114;53.404;-1.502;2023-12-14T03:04:19;6.68;;;2.08;;
23866;SDS011;12114;53.404;-1.502;2023-12-14T03:07:02;6.22;;;2.08;;
23866;SDS011;12114;53.404;-1.502;2023-12-14T03:09:47;8.60;;;2.10;;
23866;SDS011;12114;53.404;-1.502;2023-12-14T03:12:30;7.38;;;2.10;;
23866;SDS011;12114;53.404;-1.502;2023-12-14T03:15:16;5.28;;;1.80;;
23866;SDS011;12114;53.404;-1.502;2023-12-14T03:18:01;5.28;;;2.08;;
23866;SDS011;12114;53.404;-1.502;2023-12-14T03:20:46;4.38;;;2.03;;
23866;SDS011;12114;53.404;-1.502;2023-12-14T03:23:30;7.22;;;1.95;;
23866;SDS011;12114;53.404;-1.502;2023-12-14T03:26:14;7.43;;;2.10;;
23866;SDS011;12114;53.404;-1.502;2023-12-14T03:28:58;7.50;;;2.72;;
23866;SDS011;12114;53.404;-1.502;2023-12-14T03:31:42;9.23;;;2.72;;
23866;SDS011;12114;53.404;-1.502;2023-12-14T03:34:26;5.03;;;2.00;;
23866;SDS011;12114;53.404;-1.502;2023-12-14T03:37:10;9.98;;;2.45;;
23866;SDS011;12114;53.404;-1.502;2023-12-14T03:39:54;4.97;;;2.10;;
23866;SDS011;12114;53.404;-1.502;2023-12-14T03:42:38;8.68;;;3.42;;
23866;SDS011;12114;53.404;-1.502;2023-12-14T03:45:22;7.68;;;2.53;;
23866;SDS011;12114;53.404;-1.502;2023-12-14T03:48:06;4.88;;;1.85;;
23866;SDS011;12114;53.404;-1.502;2023-12-14T03:50:50;4.95;;;1.80;;
23866;SDS011;12114;53.404;-1.502;2023-12-14T03:53:34;8.02;;;2.05;;
23866;SDS011;12114;53.404;-1.502;2023-12-14T03:56:18;7.13;;;2.30;;
23866;SDS011;12114;53.404;-1.502;2023-12-14T03:59:02;4.25;;;1.88;;
23866;SDS011;12114;53.404;-1.502;2023-12-14T04:01:46;3.45;;;1.42;;
23866;SDS011;12114;53.404;-1.502;2023-12-14T04:04:30;7.57;;;3.10;;
23866;SDS011;12114;53.404;-1.502;2023-12-14T04:07:14;6.93;;;2.78;;
23866;SDS011;12114;53.404;-1.502;2023-12-14T04:09:58;10.40;;;2.80;;
23866;SDS011;12114;53.404;-1.502;2023-12-14T04:12:42;6.50;;;3.13;;
23866;SDS011;12114;53.404;-1.502;2023-12-14T04:15:27;14.75;;;4.32;;
23866;SDS011;12114;53.404;-1.502;2023-12-14T04:18:11;13.38;;;3.85;;
23866;SDS011;12114;53.404;-1.502;2023-12-14T04:20:55;8.77;;;4.15;;
23866;SDS011;12114;53.404;-1.502;2023-12-14T04:23:39;12.73;;;4.72;;
23866;SDS011;12114;53.404;-1.502;2023-12-14T04:26:23;11.80;;;4.68;;
23866;SDS011;12114;53.404;-1.502;2023-12-14T04:29:07;8.68;;;3.88;;
23866;SDS011;12114;53.404;-1.502;2023-12-14T04:31:51;8.98;;;3.50;;
23866;SDS011;12114;53.404;-1.502;2023-12-14T04:34:36;14.85;;;3.55;;
23866;SDS011;12114;53.404;-1.502;2023-12-14T04:37:20;9.00;;;2.90;;
23866;SDS011;12114;53.404;-1.502;2023-12-14T04:40:04;9.43;;;3.92;;
23866;SDS011;12114;53.404;-1.502;2023-12-14T04:42:49;8.73;;;3.58;;
23866;SDS011;12114;53.404;-1.502;2023-12-14T04:45:33;10.90;;;4.75;;
23866;SDS011;12114;53.404;-1.502;2023-12-14T04:48:17;14.32;;;6.90;;
23866;SDS011;12114;53.404;-1.502;2023-12-14T04:51:01;13.95;;;6.72;;
23866;SDS011;12114;53.404;-1.502;2023-12-14T04:53:45;16.73;;;6.47;;
23866;SDS011;12114;53.404;-1.502;2023-12-14T04:56:29;20.88;;;8.23;;
23866;SDS011;12114;53.404;-1.502;2023-12-14T04:59:13;17.40;;;7.68;;
23866;SDS011;12114;53.404;-1.502;2023-12-14T05:01:57;13.27;;;5.85;;
23866;SDS011;12114;53.404;-1.502;2023-12-14T05:04:41;11.98;;;6.05;;
23866;SDS011;12114;53.404;-1.502;2023-12-14T05:07:25;12.25;;;5.80;;
23866;SDS011;12114;53.404;-1.502;2023-12-14T05:10:09;15.07;;;5.50;;
23866;SDS011;12114;53.404;-1.502;2023-12-14T05:12:54;15.00;;;5.53;;
23866;SDS011;12114;53.404;-1.502;2023-12-14T05:15:38;10.40;;;4.68;;
23866;SDS011;12114;53.404;-1.502;2023-12-14T05:18:22;14.85;;;5.90;;
23866;SDS011;12114;53.404;-1.502;2023-12-14T05:21:06;13.15;;;5.28;;
23866;SDS011;12114;53.404;-1.502;2023-12-14T05:23:50;14.15;;;7.15;;
23866;SDS011;12114;53.404;-1.502;2023-12-14T05:26:34;21.98;;;8.57;;
23866;SDS011;12114;53.404;-1.502;2023-12-14T05:29:18;18.33;;;7.53;;
23866;SDS011;12114;53.404;-1.502;2023-12-14T05:32:05;14.43;;;6.40;;
23866;SDS011;12114;53.404;-1.502;2023-12-14T05:34:49;16.50;;;6.07;;
23866;SDS011;12114;53.404;-1.502;2023-12-14T05:37:34;12.85;;;5.85;;
23866;SDS011;12114;53.404;-1.502;2023-12-14T05:40:18;15.25;;;6.00;;
23866;SDS011;12114;53.404;-1.502;2023-12-14T05:43:02;17.52;;;8.38;;
23866;SDS011;12114;53.404;-1.502;2023-12-14T05:45:46;15.80;;;8.35;;
23866;SDS011;12114;53.404;-1.502;2023-12-14T05:48:30;13.77;;;6.85;;
23866;SDS011;12114;53.404;-1.502;2023-12-14T05:51:25;30.75;;;8.52;;
23866;SDS011;12114;53.404;-1.502;2023-12-14T05:54:11;11.80;;;5.82;;
23866;SDS011;12114;53.404;-1.502;2023-12-14T05:56:55;15.15;;;6.05;;
23866;SDS011;12114;53.404;-1.502;2023-12-14T05:59:39;17.73;;;6.43;;
23866;SDS011;12114;53.404;-1.502;2023-12-14T06:02:23;17.10;;;7.65;;
23866;SDS011;12114;53.404;-1.502;2023-12-14T06:05:08;20.63;;;7.30;;
23866;SDS011;12114;53.404;-1.502;2023-12-14T06:07:52;15.18;;;7.05;;
23866;SDS011;12114;53.404;-1.502;2023-12-14T06:10:36;15.80;;;8.10;;
23866;SDS011;12114;53.404;-1.502;2023-12-14T06:13:20;18.60;;;7.63;;
23866;SDS011;12114;53.404;-1.502;2023-12-14T06:16:05;16.85;;;8.05;;
23866;SDS011;12114;53.404;-1.502;2023-12-14T06:18:50;26.83;;;11.82;;
23866;SDS011;12114;53.404;-1.502;2023-12-14T06:21:34;18.65;;;9.30;;
23866;SDS011;12114;53.404;-1.502;2023-12-14T06:24:18;19.00;;;8.93;;
23866;SDS011;12114;53.404;-1.502;2023-12-14T06:27:04;16.00;;;8.02;;
23866;SDS011;12114;53.404;-1.502;2023-12-14T06:29:48;15.00;;;7.35;;
23866;SDS011;12114;53.404;-1.502;2023-12-14T06:32:32;12.98;;;6.18;;
23866;SDS011;12114;53.404;-1.502;2023-12-14T06:35:16;10.07;;;5.25;;
23866;SDS011;12114;53.404;-1.502;2023-12-14T06:38:00;15.43;;;6.30;;
23866;SDS011;12114;53.404;-1.502;2023-12-14T06:40:44;15.95;;;5.90;;
23866;SDS011;12114;53.404;-1.502;2023-12-14T06:43:28;12.13;;;5.35;;
23866;SDS011;12114;53.404;-1.502;2023-12-14T06:46:12;13.25;;;4.55;;
23866;SDS011;12114;53.404;-1.502;2023-12-14T06:48:56;13.68;;;4.63;;
23866;SDS011;12114;53.404;-1.502;2023-12-14T06:51:40;14.13;;;4.90;;
23866;SDS011;12114;53.404;-1.502;2023-12-14T06:54:25;16.17;;;5.22;;
23866;SDS011;12114;53.404;-1.502;2023-12-14T06:57:09;10.57;;;4.45;;
23866;SDS011;12114;53.404;-1.502;2023-12-14T06:59:53;10.90;;;3.90;;
23866;SDS011;12114;53.404;-1.502;2023-12-14T07:02:37;12.88;;;4.07;;
23866;SDS011;12114;53.404;-1.502;2023-12-14T07:05:21;9.35;;;4.38;;
23866;SDS011;12114;53.404;-1.502;2023-12-14T07:08:05;10.20;;;4.00;;
23866;SDS011;12114;53.404;-1.502;2023-12-14T07:10:49;7.63;;;3.95;;
23866;SDS011;12114;53.404;-1.502;2023-12-14T07:13:33;10.27;;;3.42;;
23866;SDS011;12114;53.404;-1.502;2023-12-14T07:16:17;10.13;;;3.35;;
23866;SDS011;12114;53.404;-1.502;2023-12-14T07:19:01;9.27;;;4.03;;
23866;SDS011;12114;53.404;-1.502;2023-12-14T07:21:45;11.82;;;4.22;;
23866;SDS011;12114;53.404;-1.502;2023-12-14T07:24:30;8.85;;;4.45;;
23866;SDS011;12114;53.404;-1.502;2023-12-14T07:27:14;10.15;;;4.13;;
23866;SDS011;12114;53.404;-1.502;2023-12-14T07:29:58;6.88;;;4.32;;
23866;SDS011;12114;53.404;-1.502;2023-12-14T07:32:42;8.60;;;4.40;;
23866;SDS011;12114;53.404;-1.502;2023-12-14T07:35:26;9.18;;;4.25;;
23866;SDS011;12114;53.404;-1.502;2023-12-14T07:38:10;10.73;;;4.65;;
23866;SDS011;12114;53.404;-1.502;2023-12-14T07:40:55;18.08;;;4.57;;
23866;SDS011;12114;53.404;-1.502;2023-12-14T07:43:39;10.63;;;4.75;;
23866;SDS011;12114;53.404;-1.502;2023-12-14T07:46:23;10.60;;;5.45;;
23866;SDS011;12114;53.404;-1.502;2023-12-14T07:49:07;9.43;;;4.82;;
23866;SDS011;12114;53.404;-1.502;2023-12-14T07:51:51;11.15;;;4.22;;
23866;SDS011;12114;53.404;-1.502;2023-12-14T07:54:38;9.10;;;4.72;;
23866;SDS011;12114;53.404;-1.502;2023-12-14T07:57:22;11.43;;;5.00;;
23866;SDS011;12114;53.404;-1.502;2023-12-14T08:00:07;7.53;;;4.30;;
23866;SDS011;12114;53.404;-1.502;2023-12-14T08:02:52;10.07;;;4.20;;
23866;SDS011;12114;53.404;-1.502;2023-12-14T08:05:36;11.00;;;3.83;;
23866;SDS011;12114;53.404;-1.502;2023-12-14T08:08:20;9.00;;;3.90;;
23866;SDS011;12114;53.404;-1.502;2023-12-14T08:11:04;22.35;;;4.95;;
23866;SDS011;12114;53.404;-1.502;2023-12-14T08:13:49;6.03;;;2.92;;
23866;SDS011;12114;53.404;-1.502;2023-12-14T08:16:33;4.65;;;2.60;;
23866;SDS011;12114;53.404;-1.502;2023-12-14T08:19:17;5.30;;;2.30;;
23866;SDS011;12114;53.404;-1.502;2023-12-14T08:22:01;5.93;;;2.35;;
23866;SDS011;12114;53.404;-1.502;2023-12-14T08:24:45;5.05;;;2.25;;
23866;SDS011;12114;53.404;-1.502;2023-12-14T08:27:29;4.28;;;1.85;;
23866;SDS011;12114;53.404;-1.502;2023-12-14T08:30:13;4.82;;;2.40;;
23866;SDS011;12114;53.404;-1.502;2023-12-14T08:32:58;9.05;;;2.30;;
23866;SDS011;12114;53.404;-1.502;2023-12-14T08:35:42;4.82;;;2.50;;
23866;SDS011;12114;53.404;-1.502;2023-12-14T08:38:25;5.40;;;3.03;;
23866;SDS011;12114;53.404;-1.502;2023-12-14T08:41:13;4.57;;;2.35;;
23866;SDS011;12114;53.404;-1.502;2023-12-14T08:43:58;4.15;;;2.45;;
23866;SDS011;12114;53.404;-1.502;2023-12-14T08:46:43;2.35;;;1.80;;
23866;SDS011;12114;53.404;-1.502;2023-12-14T08:49:29;3.58;;;1.67;;
23866;SDS011;12114;53.404;-1.502;2023-12-14T08:52:13;4.68;;;1.77;;
23866;SDS011;12114;53.404;-1.502;2023-12-14T08:57:54;3.13;;;2.10;;
23866;SDS011;12114;53.404;-1.502;2023-12-14T09:00:39;2.67;;;1.80;;
23866;SDS011;12114;53.404;-1.502;2023-12-14T09:03:23;3.05;;;1.90;;
23866;SDS011;12114;53.404;-1.502;2023-12-14T09:06:08;3.80;;;2.50;;
23866;SDS011;12114;53.404;-1.502;2023-12-14T09:08:52;4.10;;;2.58;;
23866;SDS011;12114;53.404;-1.502;2023-12-14T09:11:36;4.18;;;2.33;;
23866;SDS011;12114;53.404;-1.502;2023-12-14T09:14:20;3.35;;;2.55;;
23866;SDS011;12114;53.404;-1.502;2023-12-14T09:17:04;3.42;;;1.80;;
23866;SDS011;12114;53.404;-1.502;2023-12-14T09:19:48;2.33;;;1.80;;
23866;SDS011;12114;53.404;-1.502;2023-12-14T09:22:32;6.70;;;2.33;;
23866;SDS011;12114;53.404;-1.502;2023-12-14T09:25:16;2.88;;;2.00;;
23866;SDS011;12114;53.404;-1.502;2023-12-14T09:28:00;2.67;;;1.98;;
23866;SDS011;12114;53.404;-1.502;2023-12-14T09:30:44;2.13;;;1.27;;
23866;SDS011;12114;53.404;-1.502;2023-12-14T09:33:28;1.58;;;1.10;;
23866;SDS011;12114;53.404;-1.502;2023-12-14T09:36:13;2.42;;;1.23;;
23866;SDS011;12114;53.404;-1.502;2023-12-14T09:38:57;3.67;;;1.48;;
23866;SDS011;12114;53.404;-1.502;2023-12-14T09:41:41;2.10;;;1.13;;
23866;SDS011;12114;53.404;-1.502;2023-12-14T09:44:25;1.85;;;1.20;;
23866;SDS011;12114;53.404;-1.502;2023-12-14T09:47:10;1.55;;;1.00;;
23866;SDS011;12114;53.404;-1.502;2023-12-14T09:49:53;2.20;;;1.00;;
23866;SDS011;12114;53.404;-1.502;2023-12-14T09:52:37;1.83;;;1.10;;
23866;SDS011;12114;53.404;-1.502;2023-12-14T09:55:21;1.42;;;0.90;;
23866;SDS011;12114;53.404;-1.502;2023-12-14T09:58:05;1.55;;;1.00;;
23866;SDS011;12114;53.404;-1.502;2023-12-14T10:00:50;2.30;;;1.17;;
23866;SDS011;12114;53.404;-1.502;2023-12-14T10:03:34;1.95;;;1.35;;
23866;SDS011;12114;53.404;-1.502;2023-12-14T10:06:18;1.98;;;1.10;;
23866;SDS011;12114;53.404;-1.502;2023-12-14T10:09:03;6.10;;;1.23;;
23866;SDS011;12114;53.404;-1.502;2023-12-14T10:11:49;3.58;;;1.30;;
23866;SDS011;12114;53.404;-1.502;2023-12-14T10:15:00;1.83;;;1.30;;
23866;SDS011;12114;53.404;-1.502;2023-12-14T10:17:45;2.90;;;1.40;;
23866;SDS011;12114;53.404;-1.502;2023-12-14T10:20:36;2.00;;;1.52;;
23866;SDS011;12114;53.404;-1.502;2023-12-14T10:23:21;2.30;;;1.70;;
23866;SDS011;12114;53.404;-1.502;2023-12-14T10:26:05;2.78;;;1.63;;
23866;SDS011;12114;53.404;-1.502;2023-12-14T10:28:50;1.55;;;1.30;;
23866;SDS011;12114;53.404;-1.502;2023-12-14T10:31:35;2.30;;;1.63;;
23866;SDS011;12114;53.404;-1.502;2023-12-14T10:34:21;1.83;;;1.30;;
23866;SDS011;12114;53.404;-1.502;2023-12-14T10:37:05;2.33;;;1.55;;
23866;SDS011;12114;53.404;-1.502;2023-12-14T10:39:50;1.73;;;1.40;;
23866;SDS011;12114;53.404;-1.502;2023-12-14T10:42:37;2.45;;;1.60;;
23866;SDS011;12114;53.404;-1.502;2023-12-14T10:45:26;3.35;;;2.00;;
23866;SDS011;12114;53.404;-1.502;2023-12-14T10:48:15;1.98;;;1.50;;
23866;SDS011;12114;53.404;-1.502;2023-12-14T10:51:04;2.50;;;1.60;;
23866;SDS011;12114;53.404;-1.502;2023-12-14T10:53:49;2.13;;;1.60;;
23866;SDS011;12114;53.404;-1.502;2023-12-14T10:59:19;3.00;;;2.33;;
23866;SDS011;12114;53.404;-1.502;2023-12-14T11:02:07;3.55;;;2.42;;
23866;SDS011;12114;53.404;-1.502;2023-12-14T11:04:56;5.32;;;2.67;;
23866;SDS011;12114;53.404;-1.502;2023-12-14T11:10:26;4.88;;;2.90;;
23866;SDS011;12114;53.404;-1.502;2023-12-14T11:13:12;4.20;;;2.90;;
23866;SDS011;12114;53.404;-1.502;2023-12-14T11:15:58;3.78;;;2.90;;
23866;SDS011;12114;53.404;-1.502;2023-12-14T11:18:41;3.35;;;2.95;;
23866;SDS011;12114;53.404;-1.502;2023-12-14T11:21:25;5.10;;;3.13;;
23866;SDS011;12114;53.404;-1.502;2023-12-14T11:24:09;5.50;;;3.28;;
23866;SDS011;12114;53.404;-1.502;2023-12-14T11:26:55;3.70;;;3.28;;
23866;SDS011;12114;53.404;-1.502;2023-12-14T11:29:39;3.85;;;3.40;;
23866;SDS011;12114;53.404;-1.502;2023-12-14T11:32:26;3.92;;;3.30;;
23866;SDS011;12114;53.404;-1.502;2023-12-14T11:35:10;5.10;;;3.77;;
23866;SDS011;12114;53.404;-1.502;2023-12-14T11:37:56;4.30;;;3.60;;
23866;SDS011;12114;53.404;-1.502;2023-12-14T11:40:42;5.45;;;3.38;;
23866;SDS011;12114;53.404;-1.502;2023-12-14T11:43:26;5.82;;;4.15;;
23866;SDS011;12114;53.404;-1.502;2023-12-14T11:46:11;5.22;;;4.38;;
23866;SDS011;12114;53.404;-1.502;2023-12-14T11:48:56;4.45;;;3.90;;
23866;SDS011;12114;53.404;-1.502;2023-12-14T11:51:40;5.93;;;4.70;;
23866;SDS011;12114;53.404;-1.502;2023-12-14T11:54:25;5.47;;;4.43;;
23866;SDS011;12114;53.404;-1.502;2023-12-14T11:57:09;5.47;;;4.43;;
23866;SDS011;12114;53.404;-1.502;2023-12-14T11:59:53;5.40;;;4.60;;
23866;SDS011;12114;53.404;-1.502;2023-12-14T12:02:37;6.90;;;4.88;;
23866;SDS011;12114;53.404;-1.502;2023-12-14T12:05:35;6.75;;;5.32;;
23866;SDS011;12114;53.404;-1.502;2023-12-14T12:08:20;7.95;;;5.63;;
23866;SDS011;12114;53.404;-1.502;2023-12-14T12:11:04;7.78;;;6.18;;
23866;SDS011;12114;53.404;-1.502;2023-12-14T12:13:52;8.40;;;5.95;;
23866;SDS011;12114;53.404;-1.502;2023-12-14T12:16:37;7.15;;;5.90;;
23866;SDS011;12114;53.404;-1.502;2023-12-14T12:19:21;7.72;;;6.00;;
23866;SDS011;12114;53.404;-1.502;2023-12-14T12:22:05;10.23;;;6.28;;
23866;SDS011;12114;53.404;-1.502;2023-12-14T12:24:49;9.95;;;5.97;;
23866;SDS011;12114;53.404;-1.502;2023-12-14T12:27:33;8.77;;;7.15;;
23866;SDS011;12114;53.404;-1.502;2023-12-14T12:30:16;8.98;;;6.65;;
23866;SDS011;12114;53.404;-1.502;2023-12-14T12:33:01;10.10;;;7.10;;
23866;SDS011;12114;53.404;-1.502;2023-12-14T12:35:45;10.70;;;7.65;;
23866;SDS011;12114;53.404;-1.502;2023-12-14T12:38:29;11.85;;;6.70;;
23866;SDS011;12114;53.404;-1.502;2023-12-14T12:41:13;10.02;;;6.82;;
23866;SDS011;12114;53.404;-1.502;2023-12-14T12:43:57;12.45;;;7.07;;
23866;SDS011;12114;53.404;-1.502;2023-12-14T12:46:41;12.18;;;7.90;;
23866;SDS011;12114;53.404;-1.502;2023-12-14T12:49:25;13.93;;;9.20;;
23866;SDS011;12114;53.404;-1.502;2023-12-14T12:52:09;9.82;;;7.07;;
23866;SDS011;12114;53.404;-1.502;2023-12-14T12:54:53;12.70;;;7.63;;
23866;SDS011;12114;53.404;-1.502;2023-12-14T12:57:37;14.52;;;10.38;;
23866;SDS011;12114;53.404;-1.502;2023-12-14T13:00:21;16.38;;;11.25;;
23866;SDS011;12114;53.404;-1.502;2023-12-14T13:03:06;11.17;;;8.07;;
23866;SDS011;12114;53.404;-1.502;2023-12-14T13:05:50;18.85;;;9.55;;
23866;SDS011;12114;53.404;-1.502;2023-12-14T13:08:34;22.35;;;9.00;;
23866;SDS011;12114;53.404;-1.502;2023-12-14T13:11:18;12.93;;;8.73;;
23866;SDS011;12114;53.404;-1.502;2023-12-14T13:14:02;15.65;;;8.50;;
23866;SDS011;12114;53.404;-1.502;2023-12-14T13:16:51;13.25;;;9.13;;
23866;SDS011;12114;53.404;-1.502;2023-12-14T13:19:35;13.02;;;9.80;;
23866;SDS011;12114;53.404;-1.502;2023-12-14T13:22:19;14.48;;;10.57;;
23866;SDS011;12114;53.404;-1.502;2023-12-14T13:25:03;15.07;;;9.75;;
23866;SDS011;12114;53.404;-1.502;2023-12-14T13:27:48;13.77;;;9.45;;
23866;SDS011;12114;53.404;-1.502;2023-12-14T13:30:32;16.00;;;10.77;;
23866;SDS011;12114;53.404;-1.502;2023-12-14T13:33:16;17.70;;;9.98;;
23866;SDS011;12114;53.404;-1.502;2023-12-14T13:36:00;14.68;;;10.70;;
23866;SDS011;12114;53.404;-1.502;2023-12-14T13:38:44;16.17;;;11.35;;
23866;SDS011;12114;53.404;-1.502;2023-12-14T13:41:28;16.45;;;9.63;;
23866;SDS011;12114;53.404;-1.502;2023-12-14T13:44:17;17.58;;;8.75;;
23866;SDS011;12114;53.404;-1.502;2023-12-14T13:47:02;22.40;;;7.18;;
23866;SDS011;12114;53.404;-1.502;2023-12-14T13:49:47;18.08;;;6.63;;
23866;SDS011;12114;53.404;-1.502;2023-12-14T13:52:31;17.52;;;6.40;;
23866;SDS011;12114;53.404;-1.502;2023-12-14T13:55:15;23.95;;;7.75;;
23866;SDS011;12114;53.404;-1.502;2023-12-14T13:57:59;16.33;;;6.65;;
23866;SDS011;12114;53.404;-1.502;2023-12-14T14:00:44;22.23;;;7.65;;
23866;SDS011;12114;53.404;-1.502;2023-12-14T14:03:28;27.50;;;7.93;;
23866;SDS011;12114;53.404;-1.502;2023-12-14T14:06:12;20.15;;;6.65;;
23866;SDS011;12114;53.404;-1.502;2023-12-14T14:08:57;31.63;;;7.35;;
23866;SDS011;12114;53.404;-1.502;2023-12-14T14:11:41;32.75;;;7.47;;
23866;SDS011;12114;53.404;-1.502;2023-12-14T14:14:30;26.63;;;7.05;;
23866;SDS011;12114;53.404;-1.502;2023-12-14T14:17:14;26.35;;;6.60;;
23866;SDS011;12114;53.404;-1.502;2023-12-14T14:19:58;28.73;;;5.97;;
23866;SDS011;12114;53.404;-1.502;2023-12-14T14:22:42;30.88;;;6.25;;
23866;SDS011;12114;53.404;-1.502;2023-12-14T14:25:26;22.88;;;5.95;;
23866;SDS011;12114;53.404;-1.502;2023-12-14T14:28:10;31.58;;;6.28;;
23866;SDS011;12114;53.404;-1.502;2023-12-14T14:30:54;33.53;;;6.68;;
23866;SDS011;12114;53.404;-1.502;2023-12-14T14:33:38;27.63;;;5.90;;
23866;SDS011;12114;53.404;-1.502;2023-12-14T14:36:22;32.47;;;6.43;;
23866;SDS011;12114;53.404;-1.502;2023-12-14T14:39:07;31.35;;;6.07;;
23866;SDS011;12114;53.404;-1.502;2023-12-14T14:41:52;33.67;;;5.97;;
23866;SDS011;12114;53.404;-1.502;2023-12-14T14:44:36;24.13;;;6.10;;
23866;SDS011;12114;53.404;-1.502;2023-12-14T14:47:20;29.45;;;6.97;;
23866;SDS011;12114;53.404;-1.502;2023-12-14T14:50:05;28.88;;;6.38;;
23866;SDS011;12114;53.404;-1.502;2023-12-14T14:52:50;31.17;;;7.00;;
23866;SDS011;12114;53.404;-1.502;2023-12-14T14:55:34;26.38;;;6.53;;
23866;SDS011;12114;53.404;-1.502;2023-12-14T14:58:18;27.48;;;6.25;;
23866;SDS011;12114;53.404;-1.502;2023-12-14T15:01:03;25.48;;;5.65;;
23866;SDS011;12114;53.404;-1.502;2023-12-14T15:03:47;27.73;;;6.03;;
23866;SDS011;12114;53.404;-1.502;2023-12-14T15:06:31;25.95;;;6.30;;
23866;SDS011;12114;53.404;-1.502;2023-12-14T15:09:16;30.23;;;6.20;;
23866;SDS011;12114;53.404;-1.502;2023-12-14T15:12:00;30.70;;;6.93;;
23866;SDS011;12114;53.404;-1.502;2023-12-14T15:14:44;28.90;;;6.38;;
23866;SDS011;12114;53.404;-1.502;2023-12-14T15:17:28;25.73;;;5.80;;
23866;SDS011;12114;53.404;-1.502;2023-12-14T15:20:12;29.70;;;7.13;;
23866;SDS011;12114;53.404;-1.502;2023-12-14T15:22:56;27.50;;;5.93;;
23866;SDS011;12114;53.404;-1.502;2023-12-14T15:25:40;24.80;;;6.10;;
23866;SDS011;12114;53.404;-1.502;2023-12-14T15:28:24;23.17;;;5.25;;
23866;SDS011;12114;53.404;-1.502;2023-12-14T15:31:08;23.10;;;5.75;;
23866;SDS011;12114;53.404;-1.502;2023-12-14T15:33:52;30.80;;;5.32;;
23866;SDS011;12114;53.404;-1.502;2023-12-14T15:36:36;28.00;;;5.05;;
23866;SDS011;12114;53.404;-1.502;2023-12-14T15:39:20;29.65;;;6.10;;
23866;SDS011;12114;53.404;-1.502;2023-12-14T15:42:04;30.40;;;6.53;;
23866;SDS011;12114;53.404;-1.502;2023-12-14T15:44:49;33.83;;;6.40;;
23866;SDS011;12114;53.404;-1.502;2023-12-14T15:47:33;30.83;;;5.93;;
23866;SDS011;12114;53.404;-1.502;2023-12-14T15:50:17;27.88;;;6.53;;
23866;SDS011;12114;53.404;-1.502;2023-12-14T15:53:01;24.98;;;7.10;;
23866;SDS011;12114;53.404;-1.502;2023-12-14T15:55:45;35.10;;;7.72;;
23866;SDS011;12114;53.404;-1.502;2023-12-14T15:58:29;26.33;;;6.30;;
23866;SDS011;12114;53.404;-1.502;2023-12-14T16:01:13;29.33;;;7.10;;
23866;SDS011;12114;53.404;-1.502;2023-12-14T16:04:00;27.42;;;6.45;;
23866;SDS011;12114;53.404;-1.502;2023-12-14T16:06:43;34.65;;;6.90;;
23866;SDS011;12114;53.404;-1.502;2023-12-14T16:09:28;27.85;;;5.70;;
23866;SDS011;12114;53.404;-1.502;2023-12-14T16:12:11;31.80;;;5.95;;
23866;SDS011;12114;53.404;-1.502;2023-12-14T16:14:55;35.90;;;7.22;;
23866;SDS011;12114;53.404;-1.502;2023-12-14T16:17:40;26.48;;;6.55;;
23866;SDS011;12114;53.404;-1.502;2023-12-14T16:20:24;23.05;;;6.95;;